createdAt,value
2022-12-18T00:02:12.996Z,97981.84
2022-12-18T00:04:39.559Z,97990.59
2022-12-18T00:07:06.029Z,98003.03
2022-12-18T00:09:40.269Z,98002.13
2022-12-18T00:14:42.821Z,98002.31
2022-12-18T00:17:09.279Z,98001.66
2022-12-18T00:19:36.022Z,97994.47
2022-12-18T00:22:02.899Z,97997.47
2022-12-18T00:24:29.344Z,97994.94
2022-12-18T00:26:55.834Z,97994.84
2022-12-18T00:29:22.246Z,97992.47
2022-12-18T00:31:48.759Z,97990.06
2022-12-18T00:34:15.390Z,97995.31
2022-12-18T00:36:42.430Z,98010.38
2022-12-18T00:39:10.661Z,98003.66
2022-12-18T00:41:55.840Z,98003.72
2022-12-18T00:44:22.402Z,97992.56
2022-12-18T00:46:49.372Z,97993.72
2022-12-18T00:49:18.779Z,97991.09
2022-12-18T00:51:46.355Z,97996.00
2022-12-18T00:54:12.832Z,97991.25
2022-12-18T00:56:48.181Z,97998.66
2022-12-18T00:59:16.168Z,97991.59
2022-12-18T01:01:43.630Z,97994.13
2022-12-18T01:04:10.523Z,98010.19
2022-12-18T01:06:37.106Z,98017.47
2022-12-18T01:09:04.347Z,98005.78
2022-12-18T01:11:31.088Z,98008.00
2022-12-18T01:14:00.550Z,98008.41
2022-12-18T01:16:27.093Z,98009.59
2022-12-18T01:18:55.639Z,97998.22
2022-12-18T01:21:23.671Z,98004.31
2022-12-18T01:23:54.967Z,98002.66
2022-12-18T01:26:21.675Z,98006.28
2022-12-18T01:28:48.588Z,98007.38
2022-12-18T01:31:27.724Z,98006.78
2022-12-18T01:33:54.910Z,97999.88
2022-12-18T01:36:24.585Z,98008.75
2022-12-18T01:38:51.942Z,98018.94
2022-12-18T01:41:21.376Z,98015.00
2022-12-18T01:43:58.328Z,98017.78
2022-12-18T01:46:25.688Z,98019.34
2022-12-18T01:48:57.512Z,98025.81
2022-12-18T01:51:25.534Z,98018.75
2022-12-18T01:53:52.176Z,98023.19
2022-12-18T01:56:21.350Z,98007.31
2022-12-18T01:59:02.144Z,98010.03
2022-12-18T02:01:31.590Z,98009.81
2022-12-18T02:04:25.589Z,98008.88
2022-12-18T02:07:31.013Z,97998.31
2022-12-18T02:10:31.516Z,98002.63
2022-12-18T02:13:13.685Z,98014.47
2022-12-18T02:16:12.695Z,98003.69
2022-12-18T02:18:45.174Z,97998.31
2022-12-18T02:21:42.331Z,98005.78
2022-12-18T02:24:26.350Z,98014.84
2022-12-18T02:26:58.550Z,98015.00
2022-12-18T02:29:29.916Z,98016.16
2022-12-18T02:32:00.438Z,98017.09
2022-12-18T02:34:38.937Z,98010.19
2022-12-18T02:37:13.258Z,98027.97
2022-12-18T02:39:43.113Z,98023.91
2022-12-18T02:42:10.748Z,98024.28
2022-12-18T02:44:47.983Z,98026.28
2022-12-18T02:47:16.477Z,98032.69
2022-12-18T02:50:24.087Z,98026.50
2022-12-18T02:53:09.530Z,98026.88
2022-12-18T02:56:16.627Z,98029.16
2022-12-18T02:59:06.916Z,98032.34
2022-12-18T03:01:39.534Z,98030.31
2022-12-18T03:04:13.755Z,98033.63
2022-12-18T03:06:44.562Z,98025.06
2022-12-18T03:09:18.867Z,98021.13
2022-12-18T03:12:11.596Z,98016.47
2022-12-18T03:14:39.444Z,98022.09
2022-12-18T03:17:11.745Z,98020.66
2022-12-18T03:19:40.227Z,98019.03
2022-12-18T03:22:08.584Z,98022.47
2022-12-18T03:24:39.954Z,98027.66
2022-12-18T03:27:14.903Z,98027.44
2022-12-18T03:29:57.876Z,98027.28
2022-12-18T03:32:32.260Z,98022.38
2022-12-18T03:35:04.155Z,98030.94
2022-12-18T03:37:32.504Z,98025.81
2022-12-18T03:39:59.182Z,98037.03
2022-12-18T03:42:38.110Z,98028.00
2022-12-18T03:45:14.639Z,98033.81
2022-12-18T03:47:54.584Z,98031.59
2022-12-18T03:50:25.403Z,98035.41
2022-12-18T03:53:01.059Z,98031.38
2022-12-18T03:55:30.515Z,98030.97
2022-12-18T03:57:58.427Z,98025.88
2022-12-18T04:00:24.968Z,98024.03
2022-12-18T04:02:55.099Z,98017.66
2022-12-18T04:05:23.572Z,98024.72
2022-12-18T04:07:52.989Z,98013.13
2022-12-18T04:10:19.887Z,98017.47
2022-12-18T04:12:46.305Z,98020.28
2022-12-18T04:15:14.120Z,98020.53
2022-12-18T04:17:48.025Z,98026.69
2022-12-18T04:20:14.684Z,98030.16
2022-12-18T04:22:41.158Z,98038.84
2022-12-18T04:25:08.089Z,98034.50
2022-12-18T04:27:35.080Z,98031.78
2022-12-18T04:30:02.017Z,98032.09
2022-12-18T04:32:28.473Z,98042.66
2022-12-18T04:34:55.019Z,98040.63
2022-12-18T04:37:21.677Z,98035.38
2022-12-18T04:39:48.296Z,98040.66
2022-12-18T04:42:14.783Z,98050.38
2022-12-18T04:44:41.381Z,98045.94
2022-12-18T04:47:08.536Z,98043.06
2022-12-18T04:49:34.969Z,98039.34
2022-12-18T04:52:01.540Z,98040.81
2022-12-18T04:54:27.957Z,98022.44
2022-12-18T04:56:54.464Z,98010.31
2022-12-18T04:59:21.801Z,98009.91
2022-12-18T05:01:48.652Z,98022.44
2022-12-18T05:04:15.306Z,98023.91
2022-12-18T05:06:41.947Z,98023.91
2022-12-18T05:09:08.464Z,98017.81
2022-12-18T05:11:36.324Z,98023.22
2022-12-18T05:14:02.872Z,98024.06
2022-12-18T05:16:29.529Z,98021.09
2022-12-18T05:18:56.088Z,98021.09
2022-12-18T05:21:22.521Z,98020.94
2022-12-18T05:23:48.967Z,98025.31
2022-12-18T05:26:18.458Z,98021.09
2022-12-18T05:28:45.474Z,98014.69
2022-12-18T05:31:12.331Z,98025.22
2022-12-18T05:33:39.518Z,98016.66
2022-12-18T05:36:08.795Z,98019.47
2022-12-18T05:38:37.722Z,98028.81
2022-12-18T05:41:05.524Z,98029.16
2022-12-18T05:43:32.572Z,98033.22
2022-12-18T05:45:59.130Z,98032.97
2022-12-18T05:48:25.967Z,98022.47
2022-12-18T05:50:52.461Z,98023.03
2022-12-18T05:53:21.551Z,98023.03
2022-12-18T05:55:48.540Z,98018.72
2022-12-18T05:58:15.617Z,98017.13
2022-12-18T06:00:46.716Z,98022.41
2022-12-18T06:03:14.904Z,98021.72
2022-12-18T06:05:44.694Z,98021.88
2022-12-18T06:08:12.611Z,98027.13
2022-12-18T06:10:39.599Z,98025.66
2022-12-18T06:13:07.005Z,98029.25
2022-12-18T06:15:33.971Z,98027.63
2022-12-18T06:18:02.119Z,98035.19
2022-12-18T06:20:33.248Z,98040.63
2022-12-18T06:23:00.304Z,98038.34
2022-12-18T06:25:27.296Z,98041.78
2022-12-18T06:27:53.832Z,98042.59
2022-12-18T06:30:20.292Z,98045.84
2022-12-18T06:32:50.494Z,98045.06
2022-12-18T06:35:19.532Z,98061.69
2022-12-18T06:37:47.624Z,98065.28
2022-12-18T06:40:14.136Z,98065.44
2022-12-18T06:42:40.739Z,98068.91
2022-12-18T06:45:07.688Z,98074.94
2022-12-18T06:47:34.193Z,98073.72
2022-12-18T06:50:00.664Z,98069.38
2022-12-18T06:52:27.096Z,98074.78
2022-12-18T06:54:53.748Z,98070.53
2022-12-18T06:57:20.234Z,98078.63
2022-12-18T06:59:46.741Z,98079.84
2022-12-18T07:02:13.943Z,98084.06
2022-12-18T07:04:40.994Z,98091.56
2022-12-18T07:07:07.523Z,98101.25
2022-12-18T07:09:34.117Z,98087.38
2022-12-18T07:12:00.585Z,98103.81
2022-12-18T07:14:27.048Z,98102.66
2022-12-18T07:16:53.737Z,98105.03
2022-12-18T07:19:20.419Z,98104.94
2022-12-18T07:21:47.085Z,98109.56
2022-12-18T07:24:13.549Z,98112.91
2022-12-18T07:26:39.984Z,98103.38
2022-12-18T07:29:06.453Z,98107.03
2022-12-18T07:31:32.961Z,98106.91
2022-12-18T07:33:59.547Z,98114.66
2022-12-18T07:36:26.413Z,98111.19
2022-12-18T07:38:56.159Z,98097.50
2022-12-18T07:41:22.749Z,98096.56
2022-12-18T07:43:49.731Z,98107.41
2022-12-18T07:46:17.732Z,98100.44
2022-12-18T07:48:45.217Z,98109.59
2022-12-18T07:51:16.385Z,98101.84
2022-12-18T07:53:43.593Z,98097.81
2022-12-18T07:56:29.091Z,98102.50
2022-12-18T07:58:58.593Z,98102.66
2022-12-18T08:01:25.537Z,98108.69
2022-12-18T08:03:52.726Z,98107.84
2022-12-18T08:06:23.245Z,98111.50
2022-12-18T08:08:56.042Z,98109.38
2022-12-18T08:11:24.399Z,98110.59
2022-12-18T08:13:51.047Z,98113.78
2022-12-18T08:16:18.504Z,98109.44
2022-12-18T08:18:45.779Z,98120.25
2022-12-18T08:21:14.811Z,98119.00
2022-12-18T08:23:43.353Z,98126.72
2022-12-18T08:26:11.402Z,98114.16
2022-12-18T08:28:38.080Z,98124.63
2022-12-18T08:31:04.993Z,98120.34
2022-12-18T08:33:32.049Z,98120.78
2022-12-18T08:36:00.022Z,98126.94
2022-12-18T08:38:26.486Z,98126.31
2022-12-18T08:41:19.510Z,98125.81
2022-12-18T08:44:04.511Z,98128.78
2022-12-18T08:46:42.240Z,98127.78
2022-12-18T08:49:09.784Z,98134.03
2022-12-18T08:51:36.863Z,98135.59
2022-12-18T08:54:03.938Z,98125.88
2022-12-18T08:56:33.016Z,98122.34
2022-12-18T08:58:59.693Z,98112.16
2022-12-18T09:01:26.407Z,98112.25
2022-12-18T09:03:53.199Z,98105.13
2022-12-18T09:06:21.716Z,98106.06
2022-12-18T09:08:48.429Z,98101.03
2022-12-18T09:11:24.481Z,98107.13
2022-12-18T09:13:51.387Z,98102.44
2022-12-18T09:16:18.281Z,98102.81
2022-12-18T09:18:44.819Z,98109.03
2022-12-18T09:21:19.751Z,98100.13
2022-12-18T09:23:56.715Z,98101.63
2022-12-18T09:26:24.406Z,98094.97
2022-12-18T09:28:51.924Z,98088.41
2022-12-18T09:31:20.535Z,98093.56
2022-12-18T09:33:47.321Z,98093.34
2022-12-18T09:36:16.709Z,98095.91
2022-12-18T09:38:43.529Z,98094.88
2022-12-18T09:41:19.284Z,98092.84
2022-12-18T09:43:51.151Z,98075.03
2022-12-18T09:46:26.487Z,98082.38
2022-12-18T09:48:55.718Z,98083.66
2022-12-18T09:51:37.572Z,98086.09
2022-12-18T09:54:39.358Z,98091.41
2022-12-18T09:57:06.530Z,98087.84
2022-12-18T09:59:37.599Z,98087.56
2022-12-18T10:02:33.806Z,98087.25
2022-12-18T10:05:15.410Z,98088.31
2022-12-18T10:07:51.070Z,98093.81
2022-12-18T10:10:22.416Z,98088.25
2022-12-18T10:13:24.118Z,98097.41
2022-12-18T10:16:14.306Z,98093.66
2022-12-18T10:19:21.168Z,98089.03
2022-12-18T10:22:06.441Z,98094.41
2022-12-18T10:24:44.550Z,98097.13
2022-12-18T10:27:25.110Z,98092.31
2022-12-18T10:29:51.876Z,98083.66
2022-12-18T10:32:21.643Z,98082.34
2022-12-18T10:34:49.574Z,98079.16
2022-12-18T10:37:21.735Z,98084.97
2022-12-18T10:40:08.121Z,98088.59
2022-12-18T10:42:34.734Z,98083.25
2022-12-18T10:45:16.977Z,98087.38
2022-12-18T10:47:47.432Z,98083.88
2022-12-18T10:50:40.723Z,98086.66
2022-12-18T10:53:20.963Z,98077.97
2022-12-18T10:55:48.348Z,98080.50
2022-12-18T10:58:38.111Z,98079.47
2022-12-18T11:01:12.244Z,98080.84
2022-12-18T11:03:42.899Z,98077.91
2022-12-18T11:06:12.075Z,98059.41
2022-12-18T11:08:39.820Z,98062.16
2022-12-18T11:11:17.342Z,98061.34
2022-12-18T11:14:06.329Z,98054.41
2022-12-18T11:16:57.929Z,98053.59
2022-12-18T11:19:34.931Z,98053.06
2022-12-18T11:22:04.516Z,98044.28
2022-12-18T11:24:36.383Z,98041.34
2022-12-18T11:27:05.616Z,98037.03
2022-12-18T11:29:46.249Z,98041.41
2022-12-18T11:32:16.160Z,98046.59
2022-12-18T11:34:47.428Z,98038.19
2022-12-18T11:37:16.724Z,98039.28
2022-12-18T11:39:53.986Z,98033.84
2022-12-18T11:42:37.011Z,98021.06
2022-12-18T11:45:13.902Z,98029.78
2022-12-18T11:47:50.008Z,98022.16
2022-12-18T11:50:24.968Z,98017.53
2022-12-18T11:52:56.721Z,98025.16
2022-12-18T11:55:40.824Z,98019.97
2022-12-18T11:58:42.884Z,98018.31
2022-12-18T12:01:24.423Z,98018.53
2022-12-18T12:04:15.569Z,98017.53
2022-12-18T12:07:04.833Z,98022.44
2022-12-18T12:09:49.624Z,98021.09
2022-12-18T12:12:49.124Z,98013.81
2022-12-18T12:15:33.265Z,98006.81
2022-12-18T12:18:19.489Z,97999.81
2022-12-18T12:21:11.096Z,97993.78
2022-12-18T12:23:43.609Z,97988.34
2022-12-18T12:26:22.060Z,97982.53
2022-12-18T12:28:54.540Z,97991.59
2022-12-18T12:31:24.039Z,97982.81
2022-12-18T12:34:15.531Z,97991.16
2022-12-18T12:37:20.302Z,97985.41
2022-12-18T12:39:48.567Z,97989.47
2022-12-18T12:42:43.647Z,97978.81
2022-12-18T12:45:19.533Z,97994.31
2022-12-18T12:47:49.433Z,97995.38
2022-12-18T12:50:21.212Z,97999.88
2022-12-18T12:52:53.546Z,98000.31
2022-12-18T12:55:27.568Z,98011.06
2022-12-18T12:58:06.323Z,98004.09
2022-12-18T13:00:45.184Z,98007.88
2022-12-18T13:03:42.426Z,98008.97
2022-12-18T13:06:36.930Z,98015.09
2022-12-18T13:09:06.189Z,98026.53
2022-12-18T13:12:00.428Z,98025.47
2022-12-18T13:14:36.659Z,98032.78
2022-12-18T13:17:21.193Z,98033.63
2022-12-18T13:20:08.980Z,98026.78
2022-12-18T13:22:39.079Z,98024.81
2022-12-18T13:25:35.274Z,98024.84
2022-12-18T13:28:12.212Z,98026.09
2022-12-18T13:30:41.870Z,98022.44
2022-12-18T13:33:15.160Z,98016.03
2022-12-18T13:36:03.712Z,98020.44
2022-12-18T13:38:32.892Z,98011.84
2022-12-18T13:41:01.037Z,98017.75
2022-12-18T13:43:59.140Z,98008.75
2022-12-18T13:46:42.843Z,98009.03
2022-12-18T13:49:15.493Z,98010.81
2022-12-18T13:51:50.457Z,98007.13
2022-12-18T13:54:42.229Z,98005.53
2022-12-18T13:57:31.818Z,98006.06
2022-12-18T13:59:59.089Z,98002.81
2022-12-18T14:02:28.289Z,98003.63
2022-12-18T14:04:56.438Z,98000.38
2022-12-18T14:07:26.244Z,97999.00
2022-12-18T14:10:06.483Z,98004.19
2022-12-18T14:12:57.506Z,98006.09
2022-12-18T14:15:27.045Z,98006.09
2022-12-18T14:18:00.124Z,98006.09
2022-12-18T14:20:29.502Z,98002.84
2022-12-18T14:22:57.761Z,98003.53
2022-12-18T14:25:27.483Z,98005.03
2022-12-18T14:28:08.809Z,98002.44
2022-12-18T14:30:41.264Z,97999.56
2022-12-18T14:33:19.738Z,98002.56
2022-12-18T14:36:06.034Z,98000.38
2022-12-18T14:38:37.637Z,98001.19
2022-12-18T14:41:11.459Z,98004.72
2022-12-18T14:43:41.038Z,98000.25
2022-12-18T14:46:34.134Z,98000.91
2022-12-18T14:49:04.033Z,98002.69
2022-12-18T14:51:33.739Z,98007.44
2022-12-18T14:54:08.888Z,98001.16
2022-12-18T14:56:37.926Z,97999.78
2022-12-18T14:59:07.480Z,98001.16
2022-12-18T15:01:40.479Z,98000.59
2022-12-18T15:04:28.447Z,98008.47
2022-12-18T15:07:14.607Z,98012.19
2022-12-18T15:09:45.415Z,98012.94
2022-12-18T15:12:29.720Z,98003.22
2022-12-18T15:14:56.396Z,98012.88
2022-12-18T15:17:24.698Z,98019.22
2022-12-18T15:20:02.206Z,98006.16
2022-12-18T15:22:48.329Z,98005.03
2022-12-18T15:25:37.605Z,98008.91
2022-12-18T15:28:05.025Z,98003.09
2022-12-18T15:30:32.455Z,98003.38
2022-12-18T15:33:25.740Z,98008.53
2022-12-18T15:36:04.154Z,98014.19
2022-12-18T15:38:31.120Z,98007.28
2022-12-18T15:40:57.926Z,98002.97
2022-12-18T15:43:37.934Z,98003.22
2022-12-18T15:46:13.248Z,98004.53
2022-12-18T15:48:45.279Z,98011.50
2022-12-18T15:51:17.128Z,98012.06
2022-12-18T15:53:44.489Z,98009.56
2022-12-18T15:56:34.275Z,98005.09
2022-12-18T15:59:02.144Z,98005.09
2022-12-18T16:01:31.149Z,98008.38
2022-12-18T16:03:57.922Z,98011.44
2022-12-18T16:06:24.734Z,98008.47
2022-12-18T16:08:51.459Z,98009.69
2022-12-18T16:11:38.980Z,98019.75
2022-12-18T16:14:15.910Z,98021.09
2022-12-18T16:16:42.766Z,98023.44
2022-12-18T16:19:09.246Z,98010.41
2022-12-18T16:21:36.283Z,98016.38
2022-12-18T16:24:03.001Z,98005.25
2022-12-18T16:26:29.512Z,98009.13
2022-12-18T16:28:55.925Z,98010.34
2022-12-18T16:31:22.754Z,98006.25
2022-12-18T16:33:49.576Z,98008.81
2022-12-18T16:36:16.073Z,98012.53
2022-12-18T16:38:42.942Z,98007.81
2022-12-18T16:41:32.314Z,98003.41
2022-12-18T16:44:02.506Z,98013.97
2022-12-18T16:46:29.263Z,98015.63
2022-12-18T16:48:58.255Z,98012.78
2022-12-18T16:51:24.765Z,98010.19
2022-12-18T16:53:51.276Z,98007.38
2022-12-18T16:56:17.737Z,98002.66
2022-12-18T16:58:44.357Z,97999.81
2022-12-18T17:01:12.169Z,98006.38
2022-12-18T17:03:40.314Z,98000.09
2022-12-18T17:06:07.396Z,97991.41
2022-12-18T17:08:33.871Z,97997.81
2022-12-18T17:11:09.546Z,97995.38
2022-12-18T17:13:36.138Z,97994.66
2022-12-18T17:16:07.732Z,97992.53
2022-12-18T17:18:35.130Z,97985.50
2022-12-18T17:21:03.248Z,97985.25
2022-12-18T17:23:30.428Z,97982.41
2022-12-18T17:25:58.325Z,97986.63
2022-12-18T17:28:26.161Z,97983.09
2022-12-18T17:30:53.963Z,97983.09
2022-12-18T17:33:21.154Z,97980.53
2022-12-18T17:35:47.745Z,97977.00
2022-12-18T17:38:15.043Z,97983.78
2022-12-18T17:40:46.059Z,97981.91
2022-12-18T17:43:13.171Z,97979.59
2022-12-18T17:45:40.372Z,97972.91
2022-12-18T17:48:08.310Z,97976.03
2022-12-18T17:50:35.772Z,97977.28
2022-12-18T17:53:02.854Z,97986.94
2022-12-18T17:55:29.933Z,97987.56
2022-12-18T17:57:56.411Z,97988.50
2022-12-18T18:00:23.067Z,97989.44
2022-12-18T18:02:49.779Z,97995.28
2022-12-18T18:05:16.500Z,98000.22
2022-12-18T18:07:42.962Z,97992.59
2022-12-18T18:10:09.774Z,97981.63
2022-12-18T18:16:22.640Z,97978.44
2022-12-18T18:18:49.087Z,97981.97
2022-12-18T18:21:15.540Z,97971.38
2022-12-18T18:23:42.475Z,97976.53
2022-12-18T18:26:11.032Z,97978.44
2022-12-18T18:28:37.470Z,97987.69
2022-12-18T18:31:06.147Z,97985.81
2022-12-18T18:33:33.643Z,97983.94
2022-12-18T18:36:00.355Z,97978.38
2022-12-18T18:38:29.135Z,97979.31
2022-12-18T18:41:02.838Z,97985.91
2022-12-18T18:43:30.379Z,97983.09
2022-12-18T18:46:01.245Z,97977.56
2022-12-18T18:48:30.966Z,97970.94
2022-12-18T18:51:00.799Z,97985.03
2022-12-18T18:53:28.437Z,97989.94
2022-12-18T18:56:34.536Z,97979.03
2022-12-18T18:58:45.704Z,97992.13
2022-12-18T19:01:17.501Z,97996.50
2022-12-18T19:03:44.930Z,97987.84
2022-12-18T19:06:14.896Z,97991.66
2022-12-18T19:08:42.054Z,97980.28
2022-12-18T19:11:31.807Z,97975.38
2022-12-18T19:14:08.044Z,97973.75
2022-12-18T19:16:35.493Z,97979.03
2022-12-18T19:19:03.514Z,97986.19
2022-12-18T19:21:31.406Z,97976.97
2022-12-18T19:24:00.809Z,97964.47
2022-12-18T19:26:28.506Z,97968.22
2022-12-18T19:29:01.532Z,97962.38
2022-12-18T19:31:33.362Z,97971.31
2022-12-18T19:34:02.333Z,97973.03
2022-12-18T19:36:30.909Z,97971.38
2022-12-18T19:39:00.347Z,97961.06
2022-12-18T19:41:31.295Z,97946.91
2022-12-18T19:44:07.345Z,97942.59
2022-12-18T19:46:36.054Z,97944.22
2022-12-18T19:49:03.976Z,97941.25
2022-12-18T19:51:32.049Z,97941.13
2022-12-18T19:54:01.388Z,97933.16
2022-12-18T19:56:31.007Z,97929.59
2022-12-18T19:58:58.307Z,97922.56
2022-12-18T20:01:25.784Z,97935.91
2022-12-18T20:03:53.744Z,97925.06
2022-12-18T20:06:34.267Z,97925.50
2022-12-18T20:09:04.786Z,97925.91
2022-12-18T20:11:33.357Z,97913.94
2022-12-18T20:14:04.411Z,97901.66
2022-12-18T20:16:33.087Z,97895.75
2022-12-18T20:19:00.246Z,97896.06
2022-12-18T20:21:26.967Z,97886.84
2022-12-18T20:23:54.824Z,97887.00
2022-12-18T20:26:22.403Z,97886.34
2022-12-18T20:28:48.877Z,97890.63
2022-12-18T20:31:15.490Z,97878.84
2022-12-18T20:33:42.717Z,97877.91
2022-12-18T20:36:15.380Z,97865.16
2022-12-18T20:38:43.444Z,97873.84
2022-12-18T20:41:16.350Z,97871.13
2022-12-18T20:43:44.113Z,97874.13
2022-12-18T20:46:13.169Z,97870.97
2022-12-18T20:48:40.863Z,97873.72
2022-12-18T20:51:13.297Z,97875.50
2022-12-18T20:53:41.809Z,97871.00
2022-12-18T20:56:21.517Z,97861.66
2022-12-18T20:58:49.497Z,97861.63
2022-12-18T21:01:21.626Z,97868.69
2022-12-18T21:03:48.988Z,97884.75
2022-12-18T21:06:17.941Z,97894.53
2022-12-18T21:08:44.832Z,97892.13
2022-12-18T21:11:39.213Z,97899.16
2022-12-18T21:14:10.053Z,97904.06
2022-12-18T21:16:36.807Z,97891.16
2022-12-18T21:19:04.684Z,97896.72
2022-12-18T21:21:37.224Z,97907.03
2022-12-18T21:24:06.136Z,97892.25
2022-12-18T21:26:32.711Z,97885.97
2022-12-18T21:29:01.647Z,97876.06
2022-12-18T21:31:36.454Z,97894.81
2022-12-18T21:34:03.909Z,97912.47
2022-12-18T21:36:31.795Z,97894.53
2022-12-18T21:38:59.134Z,97892.66
2022-12-18T21:41:44.879Z,97893.72
2022-12-18T21:44:14.541Z,97883.81
2022-12-18T21:46:44.036Z,97880.13
2022-12-18T21:49:11.990Z,97893.19
2022-12-18T21:51:39.433Z,97891.81
2022-12-18T21:54:06.062Z,97891.81
2022-12-18T21:56:52.283Z,97890.75
2022-12-18T21:59:20.217Z,97886.41
2022-12-18T22:01:48.137Z,97881.78
2022-12-18T22:04:16.154Z,97878.78
2022-12-18T22:06:43.334Z,97871.28
2022-12-18T22:09:12.488Z,97860.00
2022-12-18T22:11:39.560Z,97854.56
2022-12-18T22:14:06.637Z,97858.66
2022-12-18T22:16:33.530Z,97856.88
2022-12-18T22:19:01.936Z,97849.41
2022-12-18T22:21:31.249Z,97859.47
2022-12-18T22:24:03.635Z,97857.72
2022-12-18T22:26:36.499Z,97858.00
2022-12-18T22:29:25.322Z,97858.91
2022-12-18T22:31:52.471Z,97854.59
2022-12-18T22:34:22.812Z,97854.56
2022-12-18T22:36:49.763Z,97858.50
2022-12-18T22:39:24.514Z,97858.09
2022-12-18T22:41:51.837Z,97858.09
2022-12-18T22:44:18.840Z,97854.97
2022-12-18T22:47:05.646Z,97865.94
2022-12-18T22:49:33.895Z,97856.47
2022-12-18T22:52:01.545Z,97861.63
2022-12-18T22:54:28.168Z,97861.91
2022-12-18T22:56:55.500Z,97854.84
2022-12-18T22:59:23.358Z,97852.63
2022-12-18T23:01:51.442Z,97862.69
2022-12-18T23:04:28.469Z,97865.69
2022-12-18T23:07:02.676Z,97861.63
2022-12-18T23:09:29.286Z,97878.22
2022-12-18T23:11:55.796Z,97882.03
2022-12-18T23:14:22.322Z,97873.59
2022-12-18T23:16:49.240Z,97875.75
2022-12-18T23:19:17.912Z,97891.00
2022-12-18T23:21:44.378Z,97879.53
2022-12-18T23:24:10.959Z,97880.91
2022-12-18T23:26:37.625Z,97885.38
2022-12-18T23:29:04.665Z,97871.50
2022-12-18T23:31:36.331Z,97872.72
2022-12-18T23:34:05.058Z,97870.28
2022-12-18T23:36:35.257Z,97861.31
2022-12-18T23:39:15.415Z,97868.94
2022-12-18T23:41:55.929Z,97869.88
2022-12-18T23:44:22.391Z,97869.75
2022-12-18T23:46:48.933Z,97869.09
2022-12-18T23:49:15.456Z,97878.22
2022-12-18T23:51:42.169Z,97883.09
2022-12-18T23:54:09.991Z,97878.63
2022-12-18T23:56:36.478Z,97875.50
2022-12-18T23:59:02.927Z,97871.97
